Edwards, MO

7:28 AM CST on December 19, 2014 (GMT -0600)
IVY BEND | Change Station
CLOSE
Current Station
Personal Weather Station
Location: Stover, MO
Elevation: 791 ft
Nearby Weather Stations
Active Advisory: Dense Fog Advisory Active Notice: Local Storm Report

Elev 791 ft 38.20 °N, 93.01 °W | Updated 4 minutes ago

Overcast
Overcast
34.2 °F
Feels Like 34 °F
N
0.0
Wind Variable Wind from East

Today
High -- | Low -- °F
--% Chance of Precip.
Yesterday
High -- | Low -- °F
Precip. -- in
7:24 AM 4:55 PM
Waning Crescent, 8% visible
Pressure 30.25 in
Visibility 7.0 miles
Clouds Overcast 600 ft
Windchill 34 °F
Dew Point 34 °F
Humidity 99%
Rainfall 0.07 in
Snow Depth Not available.
UV 0 out of 12
Pollen 3.90 out of 12
Air Quality Not available.
Flu Activity Not available.
METAR KH21 191315Z AUTO 09004KT 7SM OVC006 01/01 A3025 RMK AO2

More Conditions Fewer Conditions

Pressure 30.25 in
Visibility 7.0 miles
Clouds Overcast 600 ft
Windchill 34 °F
Dew Point 34 °F
Humidity 99%
Rainfall 0.07 in
Snow Depth Not available.
UV 0 out of 12
Pollen 3.90 out of 12
Air Quality Not available.
Flu Activity Not available.
METAR KH21 191315Z AUTO 09004KT 7SM OVC006 01/01 A3025 RMK AO2

More Conditions Fewer Conditions

10-Day Weather Forecast

Almanac

Astronomy

Dec. 19, 2014 Rise Set
Actual Time
Civil Twilight
Nautical Twilight
Astronomical Twilight
Moon
Length of Visible Light
Length of Day
Tomorrow will be .
, % of the Moon is Illuminated

Today's Extremes

State Highs State Lows

Community

WunderPhotos

Upload Photos

1,778,985 photos uploaded!

WunderBlogs® & News

Nearby

Air Quality

  Air Quality AQ Index Pollutant
Not available.

Snow Depth

Station Depth Elevation

Earthquake Activity

City Distance Mag. Time & Date
Minimum magnitude displayed is 2.5.

Coastal Water Temperatures

Place Temperature

Nearby Weather Stations